Time;durP1;ratioP1;P1;durP2;ratioP2;P2;SDS_P1;SDS_P2;PMS_P1;PMS_P2;Temp;Humidity;BMP_temperature;BMP_pressure;BME280_temperature;BME280_humidity;BME280_pressure;Samples;Min_cycle;Max_cycle;Signal;HPM_P1;HPM_P2
2021/07/26 00:00:00;;;;;;;17.14;12.69;;;;;;;;;;360962;147;857277;-62
2021/07/26 00:01:02;;;;;;;16.55;12.21;;;;;;;;;;354957;148;857277;-62
2021/07/26 00:02:03;;;;;;;17.54;13.07;;;;;;;;;;360657;149;858889;-62
2021/07/26 00:03:05;;;;;;;17.06;12.71;;;;;;;;;;360546;149;858576;-62
2021/07/26 00:04:07;;;;;;;17.42;12.77;;;;;;;;;;357618;147;857260;-61
2021/07/26 00:05:09;;;;;;;19.03;11.92;;;;;;;;;;359752;148;864606;-62
2021/07/26 00:06:12;;;;;;;14.72;12.09;;;;;;;;;;357879;149;859035;-62
2021/07/26 00:07:14;;;;;;;18.63;12.61;;;;;;;;;;355152;147;858928;-62
2021/07/26 00:08:15;;;;;;;17.81;13.40;;;;;;;;;;356643;148;864897;-62
2021/07/26 00:09:17;;;;;;;16.91;12.64;;;;;;;;;;355318;149;864652;-62
2021/07/26 00:10:19;;;;;;;17.85;12.71;;;;;;;;;;361038;147;857418;-62
2021/07/26 00:11:21;;;;;;;17.93;12.89;;;;;;;;;;359243;148;857580;-62
2021/07/26 00:12:22;;;;;;;18.03;12.38;;;;;;;;;;356792;148;857397;-62
2021/07/26 00:13:24;;;;;;;19.26;13.16;;;;;;;;;;357856;149;859041;-62
2021/07/26 00:14:25;;;;;;;16.47;12.58;;;;;;;;;;357117;148;859100;-62
2021/07/26 00:15:29;;;;;;;14.27;11.90;;;;;;;;;;357121;148;857951;-62
2021/07/26 00:16:31;;;;;;;20.23;12.39;;;;;;;;;;354053;152;857370;-62
2021/07/26 00:17:32;;;;;;;16.44;12.78;;;;;;;;;;356498;146;864699;-62
2021/07/26 00:18:34;;;;;;;19.51;12.77;;;;;;;;;;357473;148;864802;-62
2021/07/26 00:19:36;;;;;;;17.10;12.30;;;;;;;;;;356564;149;865582;-62
2021/07/26 00:20:37;;;;;;;18.01;12.93;;;;;;;;;;354666;149;859909;-62
2021/07/26 00:21:39;;;;;;;17.06;12.37;;;;;;;;;;357393;147;859550;-62
2021/07/26 00:22:41;;;;;;;18.50;12.91;;;;;;;;;;359538;148;859227;-62
2021/07/26 00:23:43;;;;;;;17.51;12.69;;;;;;;;;;360508;149;857308;-62
2021/07/26 00:24:45;;;;;;;18.25;12.93;;;;;;;;;;357618;147;864814;-61
2021/07/26 00:25:47;;;;;;;19.32;13.32;;;;;;;;;;357433;148;865716;-62
2021/07/26 00:26:49;;;;;;;20.03;13.54;;;;;;;;;;357589;149;864729;-62
2021/07/26 00:27:50;;;;;;;17.33;12.86;;;;;;;;;;358988;147;857815;-61
2021/07/26 00:28:54;;;;;;;18.08;12.89;;;;;;;;;;358130;147;857196;-61
2021/07/26 00:29:55;;;;;;;17.58;12.49;;;;;;;;;;358541;149;857211;-62
2021/07/26 00:30:59;;;;;;;19.13;12.09;;;;;;;;;;359547;149;857296;-62
2021/07/26 00:32:00;;;;;;;19.43;12.66;;;;;;;;;;358369;146;858586;-62
2021/07/26 00:33:02;;;;;;;17.87;12.31;;;;;;;;;;357107;148;864883;-62
2021/07/26 00:34:20;;;;;;;18.77;13.13;;;;;;;;;;356526;151;857199;-62
2021/07/26 00:35:21;;;;;;;17.93;12.92;;;;;;;;;;357100;147;857352;-61
2021/07/26 00:36:23;;;;;;;16.47;12.39;;;;;;;;;;356348;148;857397;-62
2021/07/26 00:37:26;;;;;;;19.39;12.26;;;;;;;;;;360733;149;859305;-62
2021/07/26 00:38:28;;;;;;;16.57;12.19;;;;;;;;;;359973;149;866009;-63
2021/07/26 00:39:30;;;;;;;15.88;12.31;;;;;;;;;;357287;149;867280;-62
2021/07/26 00:40:32;;;;;;;22.19;13.09;;;;;;;;;;357579;149;857192;-62
2021/07/26 00:41:34;;;;;;;18.02;12.19;;;;;;;;;;357974;150;858867;-62
2021/07/26 00:42:36;;;;;;;20.44;12.34;;;;;;;;;;357999;147;864928;-63
2021/07/26 00:43:37;;;;;;;15.67;12.01;;;;;;;;;;355300;148;864724;-62
2021/07/26 00:44:39;;;;;;;14.86;11.88;;;;;;;;;;356528;151;857408;-62
2021/07/26 00:45:40;;;;;;;15.36;11.69;;;;;;;;;;357713;146;858951;-62
2021/07/26 00:46:43;;;;;;;17.81;11.75;;;;;;;;;;355646;148;858612;-62
2021/07/26 00:47:44;;;;;;;14.46;11.53;;;;;;;;;;358136;149;857794;-62
2021/07/26 00:48:46;;;;;;;14.31;11.02;;;;;;;;;;360731;147;857209;-62
2021/07/26 00:49:48;;;;;;;17.13;12.03;;;;;;;;;;354532;148;857384;-62
2021/07/26 00:50:52;;;;;;;20.10;11.97;;;;;;;;;;354450;148;857295;-63
2021/07/26 00:51:54;;;;;;;16.24;11.99;;;;;;;;;;354027;152;857143;-62
2021/07/26 00:52:56;;;;;;;17.81;11.49;;;;;;;;;;358317;147;858036;-63
2021/07/26 00:53:58;;;;;;;18.66;12.47;;;;;;;;;;356080;148;857276;-63
2021/07/26 00:54:59;;;;;;;16.66;11.84;;;;;;;;;;355811;146;857298;-62
2021/07/26 00:56:01;;;;;;;22.15;11.64;;;;;;;;;;354702;147;865509;-63
2021/07/26 00:57:03;;;;;;;14.65;10.72;;;;;;;;;;355774;148;857305;-63
2021/07/26 00:58:05;;;;;;;18.62;11.43;;;;;;;;;;354776;149;857272;-63
2021/07/26 00:59:06;;;;;;;17.99;10.56;;;;;;;;;;354176;152;859307;-63
2021/07/26 01:00:10;;;;;;;15.58;11.24;;;;;;;;;;356135;147;857383;-63
2021/07/26 01:01:14;;;;;;;15.76;10.87;;;;;;;;;;356826;148;858226;-63
2021/07/26 01:02:16;;;;;;;15.65;11.52;;;;;;;;;;356480;149;858708;-63
2021/07/26 01:03:17;;;;;;;17.76;11.69;;;;;;;;;;358398;146;857836;-63
2021/07/26 01:04:19;;;;;;;16.11;12.21;;;;;;;;;;355891;149;860023;-63
2021/07/26 01:05:20;;;;;;;18.72;11.19;;;;;;;;;;359301;146;858775;-63
2021/07/26 01:06:22;;;;;;;15.06;11.30;;;;;;;;;;359727;149;859257;-63
2021/07/26 01:07:24;;;;;;;14.39;10.76;;;;;;;;;;356425;148;864997;-63
2021/07/26 01:08:25;;;;;;;15.24;11.23;;;;;;;;;;355872;149;857331;-63
2021/07/26 01:09:27;;;;;;;17.48;12.31;;;;;;;;;;355453;149;857193;-63
2021/07/26 01:10:29;;;;;;;15.37;10.74;;;;;;;;;;356600;148;857288;-63
2021/07/26 01:11:30;;;;;;;15.52;10.99;;;;;;;;;;355143;148;858185;-63
2021/07/26 01:12:32;;;;;;;16.02;11.04;;;;;;;;;;354324;149;859110;-63
2021/07/26 01:13:35;;;;;;;15.23;11.11;;;;;;;;;;355151;147;859546;-62
2021/07/26 01:14:36;;;;;;;16.67;11.19;;;;;;;;;;357820;148;858876;-63
2021/07/26 01:15:38;;;;;;;14.26;9.98;;;;;;;;;;356507;151;857627;-63
2021/07/26 01:16:42;;;;;;;14.96;10.62;;;;;;;;;;356466;147;857792;-63
2021/07/26 01:18:10;;;;;;;15.33;10.50;;;;;;;;;;354720;146;857866;-63
2021/07/26 01:19:06;;;;;;;16.44;10.46;;;;;;;;;;354881;149;857301;-64
2021/07/26 01:20:08;;;;;;;16.76;10.85;;;;;;;;;;359775;149;859168;-64
2021/07/26 01:21:14;;;;;;;14.10;10.45;;;;;;;;;;354931;147;857299;-63
2021/07/26 01:22:16;;;;;;;14.21;9.61;;;;;;;;;;357387;148;857362;-64
2021/07/26 01:23:17;;;;;;;15.55;9.70;;;;;;;;;;360553;149;859262;-64
2021/07/26 01:24:19;;;;;;;14.86;10.10;;;;;;;;;;357806;148;859116;-64
2021/07/26 01:25:20;;;;;;;14.39;10.29;;;;;;;;;;355874;148;858508;-63
2021/07/26 01:26:24;;;;;;;15.17;10.06;;;;;;;;;;360193;149;859848;-64
2021/07/26 01:27:26;;;;;;;18.35;10.12;;;;;;;;;;360592;147;857351;-64
2021/07/26 01:28:29;;;;;;;14.06;10.27;;;;;;;;;;355353;148;859535;-64
2021/07/26 01:29:31;;;;;;;17.94;9.65;;;;;;;;;;359721;148;857181;-64
2021/07/26 01:30:33;;;;;;;12.64;8.56;;;;;;;;;;355132;149;859320;-64
2021/07/26 01:31:34;;;;;;;15.19;10.18;;;;;;;;;;354913;147;857208;-63
2021/07/26 01:32:36;;;;;;;13.98;9.85;;;;;;;;;;356947;148;864982;-63
2021/07/26 01:33:38;;;;;;;15.81;10.36;;;;;;;;;;354925;149;857328;-63
2021/07/26 01:34:39;;;;;;;15.01;10.37;;;;;;;;;;355593;148;857334;-62
2021/07/26 01:35:41;;;;;;;14.38;10.10;;;;;;;;;;357537;148;857446;-63
2021/07/26 01:36:43;;;;;;;13.79;10.21;;;;;;;;;;356066;149;859156;-62
2021/07/26 01:37:44;;;;;;;12.15;9.61;;;;;;;;;;354726;147;858180;-62
2021/07/26 01:38:46;;;;;;;15.61;10.01;;;;;;;;;;357248;147;859720;-62
2021/07/26 01:39:48;;;;;;;15.49;10.14;;;;;;;;;;357052;149;857294;-62
2021/07/26 01:40:50;;;;;;;21.41;10.13;;;;;;;;;;360136;149;857232;-62
2021/07/26 01:41:54;;;;;;;11.55;9.45;;;;;;;;;;357222;147;857198;-62
2021/07/26 01:43:03;;;;;;;16.33;10.21;;;;;;;;;;354879;148;857326;-62
2021/07/26 01:44:10;;;;;;;17.33;9.88;;;;;;;;;;354028;152;859155;-62
2021/07/26 01:45:11;;;;;;;17.66;10.45;;;;;;;;;;355451;146;857214;-62
2021/07/26 01:46:25;;;;;;;16.16;9.86;;;;;;;;;;357640;149;858830;-62
2021/07/26 01:47:27;;;;;;;13.47;9.12;;;;;;;;;;357504;146;859403;-61
2021/07/26 01:48:42;;;;;;;13.00;9.08;;;;;;;;;;359569;148;858656;-62
2021/07/26 01:49:46;;;;;;;12.93;9.38;;;;;;;;;;354883;146;859454;-62
2021/07/26 01:50:51;;;;;;;16.22;9.47;;;;;;;;;;360335;149;857378;-62
2021/07/26 01:51:52;;;;;;;13.39;9.22;;;;;;;;;;359194;147;857262;-62
2021/07/26 01:52:54;;;;;;;20.24;10.40;;;;;;;;;;353847;148;857217;-62
2021/07/26 01:53:55;;;;;;;11.75;8.76;;;;;;;;;;359105;149;858948;-62
2021/07/26 01:54:57;;;;;;;15.28;9.84;;;;;;;;;;360020;149;858698;-62
2021/07/26 01:55:59;;;;;;;14.98;9.38;;;;;;;;;;357873;147;857542;-62
2021/07/26 01:57:01;;;;;;;13.92;9.35;;;;;;;;;;355067;148;857951;-62
2021/07/26 01:58:03;;;;;;;14.46;9.51;;;;;;;;;;359283;147;859602;-62
2021/07/26 01:59:05;;;;;;;13.84;9.21;;;;;;;;;;359001;145;865453;-62
2021/07/26 02:00:07;;;;;;;15.57;9.09;;;;;;;;;;361285;146;858930;-62
2021/07/26 02:01:09;;;;;;;12.32;8.72;;;;;;;;;;359802;149;859059;-62
2021/07/26 02:02:11;;;;;;;17.06;9.66;;;;;;;;;;359760;149;858773;-62
2021/07/26 02:03:12;;;;;;;12.00;9.46;;;;;;;;;;359836;146;858425;-62
2021/07/26 02:04:14;;;;;;;13.76;9.68;;;;;;;;;;358617;145;857153;-62
2021/07/26 02:05:16;;;;;;;12.55;9.20;;;;;;;;;;358321;147;857293;-62
2021/07/26 02:06:19;;;;;;;12.32;9.33;;;;;;;;;;358549;145;857451;-62
2021/07/26 02:07:21;;;;;;;14.26;8.96;;;;;;;;;;361661;146;857950;-62
2021/07/26 02:08:22;;;;;;;13.34;9.07;;;;;;;;;;364937;146;857366;-62
2021/07/26 02:09:24;;;;;;;12.84;8.74;;;;;;;;;;363845;145;866395;-63
2021/07/26 02:10:26;;;;;;;12.46;8.63;;;;;;;;;;360069;145;858798;-62
2021/07/26 02:11:27;;;;;;;14.81;9.50;;;;;;;;;;358291;147;860477;-62
2021/07/26 02:12:29;;;;;;;16.34;9.61;;;;;;;;;;360947;144;860384;-62
2021/07/26 02:13:32;;;;;;;13.27;8.65;;;;;;;;;;363022;143;858871;-62
2021/07/26 02:14:34;;;;;;;13.17;9.09;;;;;;;;;;362054;145;859024;-63
2021/07/26 02:15:35;;;;;;;13.81;9.28;;;;;;;;;;362754;148;857288;-63
2021/07/26 02:16:38;;;;;;;16.72;9.85;;;;;;;;;;361992;147;857381;-63
2021/07/26 02:17:39;;;;;;;13.27;9.19;;;;;;;;;;358333;146;858247;-63
2021/07/26 02:18:41;;;;;;;15.84;9.08;;;;;;;;;;359502;147;858732;-63
2021/07/26 02:19:43;;;;;;;17.61;9.50;;;;;;;;;;365250;144;857209;-63
2021/07/26 02:20:45;;;;;;;11.68;8.61;;;;;;;;;;359966;147;857308;-63
2021/07/26 02:21:46;;;;;;;12.54;8.97;;;;;;;;;;358445;145;857412;-61
2021/07/26 02:22:48;;;;;;;13.30;9.22;;;;;;;;;;359226;145;857240;-62
2021/07/26 02:23:49;;;;;;;18.21;9.13;;;;;;;;;;358402;145;857236;-62
2021/07/26 02:24:51;;;;;;;12.21;9.07;;;;;;;;;;359061;146;859126;-63
2021/07/26 02:25:52;;;;;;;12.14;8.84;;;;;;;;;;358304;147;857543;-63
2021/07/26 02:26:54;;;;;;;13.71;9.09;;;;;;;;;;358615;145;857390;-63
2021/07/26 02:27:56;;;;;;;14.84;9.71;;;;;;;;;;361170;145;857961;-62
2021/07/26 02:28:57;;;;;;;14.61;8.64;;;;;;;;;;359233;146;859096;-63
2021/07/26 02:29:59;;;;;;;12.20;8.12;;;;;;;;;;361341;147;859732;-63
2021/07/26 02:31:01;;;;;;;12.25;8.60;;;;;;;;;;359911;145;859170;-63
2021/07/26 02:32:03;;;;;;;10.56;8.80;;;;;;;;;;359757;146;865006;-62
2021/07/26 02:33:04;;;;;;;12.13;8.37;;;;;;;;;;360976;144;857170;-63
2021/07/26 02:34:06;;;;;;;14.89;8.37;;;;;;;;;;360994;145;858396;-62
2021/07/26 02:35:08;;;;;;;10.90;8.40;;;;;;;;;;360972;145;858368;-63
2021/07/26 02:36:10;;;;;;;13.83;9.04;;;;;;;;;;361674;147;860734;-63
2021/07/26 02:37:12;;;;;;;12.99;8.54;;;;;;;;;;362167;147;865768;-61
2021/07/26 02:38:13;;;;;;;11.34;8.38;;;;;;;;;;360336;144;857185;-61
2021/07/26 02:39:15;;;;;;;12.86;8.43;;;;;;;;;;360779;145;857125;-62
2021/07/26 02:40:18;;;;;;;12.37;8.54;;;;;;;;;;363001;147;857381;-61
2021/07/26 02:41:20;;;;;;;11.51;8.39;;;;;;;;;;360222;145;858998;-61
2021/07/26 02:42:22;;;;;;;15.61;9.23;;;;;;;;;;361028;146;857316;-60
2021/07/26 02:43:23;;;;;;;15.09;8.38;;;;;;;;;;362586;146;856492;-61
2021/07/26 02:44:25;;;;;;;13.40;8.81;;;;;;;;;;360263;145;866850;-61
2021/07/26 02:45:26;;;;;;;12.12;8.88;;;;;;;;;;360902;143;857325;-61
2021/07/26 02:46:28;;;;;;;11.33;8.25;;;;;;;;;;359617;146;859137;-61
2021/07/26 02:47:30;;;;;;;12.89;9.40;;;;;;;;;;362156;146;858630;-61
2021/07/26 02:48:32;;;;;;;12.05;8.17;;;;;;;;;;362134;145;858677;-61
2021/07/26 02:49:33;;;;;;;12.23;8.80;;;;;;;;;;358622;146;857206;-63
2021/07/26 02:50:36;;;;;;;12.50;8.34;;;;;;;;;;363299;147;857188;-63
2021/07/26 02:51:38;;;;;;;13.50;8.65;;;;;;;;;;359487;148;857350;-63
2021/07/26 02:52:40;;;;;;;10.71;8.04;;;;;;;;;;359455;146;857312;-61
2021/07/26 02:53:44;;;;;;;12.89;8.47;;;;;;;;;;360666;147;857354;-61
2021/07/26 02:54:46;;;;;;;14.32;8.59;;;;;;;;;;358571;145;856947;-65
2021/07/26 02:55:47;;;;;;;14.94;8.82;;;;;;;;;;360296;145;857281;-62
2021/07/26 02:56:49;;;;;;;11.67;8.37;;;;;;;;;;360809;144;863750;-64
2021/07/26 02:57:53;;;;;;;12.13;8.32;;;;;;;;;;358356;149;856411;-63
2021/07/26 02:58:54;;;;;;;13.39;9.28;;;;;;;;;;359330;145;856219;-63
2021/07/26 02:59:56;;;;;;;13.16;8.61;;;;;;;;;;360492;145;856302;-64
2021/07/26 03:00:57;;;;;;;11.63;8.09;;;;;;;;;;358741;147;864868;-64
2021/07/26 03:01:59;;;;;;;16.16;8.24;;;;;;;;;;361373;145;864935;-62
2021/07/26 03:03:00;;;;;;;11.33;8.15;;;;;;;;;;359096;146;857324;-65
2021/07/26 03:04:02;;;;;;;10.97;7.79;;;;;;;;;;357860;147;857168;-64
2021/07/26 03:05:04;;;;;;;13.90;8.11;;;;;;;;;;357826;150;857150;-63
2021/07/26 03:06:13;;;;;;;12.01;7.33;;;;;;;;;;359822;145;856237;-63
2021/07/26 03:07:15;;;;;;;13.18;8.17;;;;;;;;;;359403;146;865350;-63
2021/07/26 03:08:16;;;;;;;13.52;8.72;;;;;;;;;;357943;149;857470;-63
2021/07/26 03:09:18;;;;;;;13.50;9.26;;;;;;;;;;358760;147;860003;-65
2021/07/26 03:10:21;;;;;;;11.58;8.29;;;;;;;;;;359320;146;856414;-62
2021/07/26 03:11:23;;;;;;;13.96;8.41;;;;;;;;;;364864;144;856349;-63
2021/07/26 03:12:24;;;;;;;12.23;8.11;;;;;;;;;;359146;145;856357;-61
2021/07/26 03:13:26;;;;;;;12.96;7.77;;;;;;;;;;360356;145;856311;-62
2021/07/26 03:14:27;;;;;;;13.75;8.10;;;;;;;;;;358136;146;864127;-63
2021/07/26 03:15:29;;;;;;;13.77;8.23;;;;;;;19.62;100.00;64337.10;358055;147;863744;-61
2021/07/26 03:16:33;;;;;;;10.64;6.63;;;;;;;;;;357507;145;859955;-62
2021/07/26 03:17:36;;;;;;;11.10;7.28;;;;;;;;;;361059;144;857170;-62
2021/07/26 03:18:38;;;;;;;10.72;7.33;;;;;;;;;;359833;147;857301;-62
2021/07/26 03:19:39;;;;;;;10.59;7.63;;;;;;;;;;362623;144;859109;-60
2021/07/26 03:20:45;;;;;;;11.76;7.43;;;;;;;;;;360018;147;857237;-63
2021/07/26 03:21:54;;;;;;;11.30;7.61;;;;;;;;;;361110;149;857914;-61
2021/07/26 03:23:03;;;;;;;11.28;7.93;;;;;;;;;;356881;149;858133;-60
2021/07/26 03:24:05;;;;;;;12.44;8.15;;;;;;;;;;358871;145;858721;-59
2021/07/26 03:25:07;;;;;;;11.49;7.81;;;;;;;;;;363593;145;857659;-59
2021/07/26 03:26:09;;;;;;;13.39;8.37;;;;;;;;;;357914;147;858717;-60
2021/07/26 03:27:11;;;;;;;13.39;8.24;;;;;;;;;;361240;147;857851;-59
2021/07/26 03:28:13;;;;;;;13.15;8.51;;;;;;;;;;360408;146;865339;-60
2021/07/26 03:29:14;;;;;;;13.05;8.54;;;;;;;;;;360884;146;864855;-61
2021/07/26 03:30:16;;;;;;;14.87;8.03;;;;;;;;;;360000;147;857409;-59
2021/07/26 03:31:18;;;;;;;13.10;8.31;;;;;;;;;;361226;144;857455;-62
2021/07/26 03:32:20;;;;;;;14.06;8.01;;;;;;;;;;359066;147;866032;-63
2021/07/26 03:33:21;;;;;;;11.84;8.55;;;;;;;;;;360280;147;858685;-62
2021/07/26 03:34:23;;;;;;;12.34;8.19;;;;;;;;;;359457;147;857323;-59
2021/07/26 03:35:25;;;;;;;13.57;9.21;;;;;;;;;;361892;145;857299;-60
2021/07/26 03:36:27;;;;;;;11.37;8.79;;;;;;;;;;363912;146;857357;-60
2021/07/26 03:37:28;;;;;;;17.83;7.98;;;;;;;;;;357812;147;857267;-60
2021/07/26 03:38:30;;;;;;;14.24;9.12;;;;;;;;;;361229;146;858331;-60
2021/07/26 03:39:31;;;;;;;14.34;8.36;;;;;;;;;;359100;147;857656;-61
2021/07/26 03:40:34;;;;;;;12.93;8.62;;;;;;;;;;361184;145;859036;-60
2021/07/26 03:41:35;;;;;;;14.80;8.94;;;;;;;;;;359803;145;857320;-60
2021/07/26 03:42:37;;;;;;;11.79;9.18;;;;;;;;;;363280;145;857387;-60
2021/07/26 03:43:38;;;;;;;20.24;8.99;;;;;;;;;;362288;147;859377;-60
2021/07/26 03:44:40;;;;;;;12.76;8.91;;;;;;;;;;359655;146;865301;-63
2021/07/26 03:45:42;;;;;;;10.45;8.02;;;;;;;;;;358697;146;857277;-61
2021/07/26 03:46:44;;;;;;;13.63;8.35;;;;;;;;;;363785;147;857275;-63
2021/07/26 03:47:45;;;;;;;16.54;8.39;;;;;;;;;;358365;146;857267;-61
2021/07/26 03:48:47;;;;;;;18.19;8.60;;;;;;;;;;360307;145;857721;-61
2021/07/26 03:49:48;;;;;;;13.45;8.44;;;;;;;;;;358338;147;857256;-60
2021/07/26 03:50:50;;;;;;;12.75;8.11;;;;;;;;;;363797;147;859012;-63
2021/07/26 03:51:52;;;;;;;12.59;8.01;;;;;;;;;;359769;144;858831;-60
2021/07/26 03:52:54;;;;;;;17.57;7.84;;;;;;;;;;360792;145;864915;-62
2021/07/26 03:53:55;;;;;;;17.76;8.49;;;;;;;;;;361562;146;857214;-62
2021/07/26 03:54:57;;;;;;;12.15;8.29;;;;;;;;;;358306;145;857300;-61
2021/07/26 03:55:59;;;;;;;17.24;8.39;;;;;;;;;;361818;144;857297;-62
2021/07/26 03:57:01;;;;;;;11.67;8.15;;;;;;;;;;363174;144;864981;-60
2021/07/26 03:58:03;;;;;;;16.75;8.33;;;;;;;;;;362187;147;857379;-60
2021/07/26 03:59:05;;;;;;;11.19;7.85;;;;;;;;;;360335;146;865881;-62
2021/07/26 04:00:08;;;;;;;17.22;8.41;;;;;;;;;;360307;147;858501;-64
2021/07/26 04:01:09;;;;;;;17.21;9.19;;;;;;;;;;358161;147;865020;-64
2021/07/26 04:02:11;;;;;;;10.01;7.70;;;;;;;;;;360218;144;866109;-64
2021/07/26 04:03:27;;;;;;;16.98;8.21;;;;;;;;;;358732;145;865385;-64
2021/07/26 04:04:26;;;;;;;12.57;7.99;;;;;;;;;;361871;147;857465;-63
2021/07/26 04:05:32;;;;;;;13.26;8.10;;;;;;;;;;361376;144;857209;-63
2021/07/26 04:06:32;;;;;;;17.85;8.35;;;;;;;;;;359388;145;858974;-63
2021/07/26 04:07:36;;;;;;;15.24;8.69;;;;;;;;;;360826;146;858841;-64
2021/07/26 04:08:39;;;;;;;18.12;8.58;;;;;;;;;;359551;145;857769;-64
2021/07/26 04:09:44;;;;;;;17.73;8.16;;;;;;;;;;360169;145;859135;-66
2021/07/26 04:10:49;;;;;;;17.90;8.56;;;;;;;;;;361471;147;857240;-64
2021/07/26 04:11:55;;;;;;;14.43;8.53;;;;;;;;;;357830;145;859959;-65
2021/07/26 04:12:52;;;;;;;20.24;8.62;;;;;;;;;;359396;144;858987;-63
2021/07/26 04:14:01;;;;;;;12.95;7.66;;;;;;;;;;360967;145;858096;-65
2021/07/26 04:14:57;;;;;;;15.06;7.66;;;;;;;;;;359433;147;865863;-64
2021/07/26 04:15:59;;;;;;;14.84;8.61;;;;;;;;;;360198;146;857280;-62
2021/07/26 04:17:01;;;;;;;17.45;8.52;;;;;;;;;;359301;145;857788;-63
2021/07/26 04:18:02;;;;;;;19.14;8.43;;;;;;;;;;361262;147;865479;-66
2021/07/26 04:19:04;;;;;;;16.42;8.02;;;;;;;;;;361290;146;857234;-65
2021/07/26 04:20:07;;;;;;;17.41;8.54;;;;;;;;;;360886;147;866448;-66
2021/07/26 04:21:09;;;;;;;11.81;7.86;;;;;;;;;;362962;147;866682;-63
2021/07/26 04:22:10;;;;;;;13.94;7.94;;;;;;;;;;358864;146;858732;-63
2021/07/26 04:23:12;;;;;;;13.49;7.91;;;;;;;;;;359437;146;865415;-62
2021/07/26 04:24:14;;;;;;;15.95;8.21;;;;;;;;;;359430;145;857351;-61
2021/07/26 04:25:15;;;;;;;11.14;7.56;;;;;;;;;;361636;146;857211;-62
2021/07/26 04:26:17;;;;;;;17.12;7.98;;;;;;;;;;357046;148;857314;-62
2021/07/26 04:27:19;;;;;;;16.04;8.20;;;;;;;;;;361862;145;857386;-62
2021/07/26 04:28:20;;;;;;;14.56;8.03;;;;;;;;;;361571;145;857343;-61
2021/07/26 04:29:22;;;;;;;17.89;7.62;;;;;;;;;;359326;145;857313;-60
2021/07/26 04:30:25;;;;;;;15.21;7.27;;;;;;;;;;359218;146;858398;-62
2021/07/26 04:31:27;;;;;;;13.10;7.63;;;;;;;;;;360360;145;857259;-62
2021/07/26 04:32:28;;;;;;;11.89;8.13;;;;;;;;;;362651;147;859507;-62
2021/07/26 04:33:30;;;;;;;14.07;7.94;;;;;;;;;;360841;144;866202;-64
2021/07/26 04:34:32;;;;;;;20.36;8.16;;;;;;;;;;358090;147;858330;-63
2021/07/26 04:35:33;;;;;;;12.58;7.54;;;;;;;;;;361151;147;857251;-64
2021/07/26 04:36:36;;;;;;;14.49;7.68;;;;;;;;;;360591;145;864867;-62
2021/07/26 04:37:37;;;;;;;9.61;6.92;;;;;;;;;;360095;145;857390;-61
2021/07/26 04:38:39;;;;;;;12.89;7.71;;;;;;;;;;359334;147;859086;-60
2021/07/26 04:39:41;;;;;;;12.74;7.58;;;;;;;;;;360248;147;864988;-61
2021/07/26 04:40:44;;;;;;;18.89;7.63;;;;;;;;;;359926;147;865034;-62
2021/07/26 04:41:46;;;;;;;16.13;7.90;;;;;;;;;;361371;145;857528;-63
2021/07/26 04:42:48;;;;;;;18.03;8.01;;;;;;;;;;359936;146;857272;-63
2021/07/26 04:43:49;;;;;;;12.74;7.83;;;;;;;;;;359295;145;865368;-63
2021/07/26 04:44:51;;;;;;;12.54;7.76;;;;;;;;;;360658;146;859832;-62
2021/07/26 04:45:55;;;;;;;13.34;8.51;;;;;;;;;;363319;147;859012;-63
2021/07/26 04:46:57;;;;;;;13.72;7.58;;;;;;;;;;360229;146;857239;-61
2021/07/26 04:47:58;;;;;;;14.93;7.76;;;;;;;;;;360561;144;859118;-65
2021/07/26 04:49:00;;;;;;;13.01;8.17;;;;;;;;;;359514;146;857246;-62
2021/07/26 04:50:02;;;;;;;12.99;8.11;;;;;;;;;;362812;146;857234;-62
2021/07/26 04:51:03;;;;;;;11.88;7.11;;;;;;;;;;361402;144;864916;-62
2021/07/26 04:52:05;;;;;;;11.10;7.93;;;;;;;;;;360630;145;864953;-63
2021/07/26 04:53:06;;;;;;;14.63;7.49;;;;;;;;;;358568;147;857366;-61
2021/07/26 04:54:08;;;;;;;14.34;7.81;;;;;;;;;;359314;145;865905;-64
2021/07/26 04:55:10;;;;;;;13.91;7.47;;;;;;;;;;361156;145;860208;-63
2021/07/26 04:56:12;;;;;;;10.91;7.69;;;;;;;;;;361832;147;857903;-63
2021/07/26 04:57:14;;;;;;;10.87;7.16;;;;;;;;;;360280;146;858531;-62
2021/07/26 04:58:15;;;;;;;12.45;7.39;;;;;;;;;;360252;144;857774;-63
2021/07/26 04:59:17;;;;;;;9.93;7.66;;;;;;;;;;359344;147;865029;-61
2021/07/26 05:00:19;;;;;;;10.68;7.55;;;;;;;;;;354286;149;857369;-64
2021/07/26 05:01:20;;;;;;;10.58;6.80;;;;;;;;;;356676;147;857392;-65
2021/07/26 05:02:22;;;;;;;12.28;7.49;;;;;;;;;;356114;146;866021;-68
2021/07/26 05:03:24;;;;;;;12.38;7.99;;;;;;;;;;353885;149;866914;-65
2021/07/26 05:04:25;;;;;;;11.83;7.71;;;;;;;;;;357120;148;857368;-64
2021/07/26 05:05:27;;;;;;;13.76;7.59;;;;;;;;;;355834;148;858147;-64
2021/07/26 05:06:29;;;;;;;9.60;7.13;;;;;;;;;;351515;149;857246;-65
2021/07/26 05:07:31;;;;;;;11.78;7.35;;;;;;;;;;352583;152;865039;-62
2021/07/26 05:08:32;;;;;;;15.07;7.64;;;;;;;;;;356002;146;857304;-60
2021/07/26 05:09:38;;;;;;;13.54;7.29;;;;;;;;;;354786;148;858966;-60
2021/07/26 05:10:45;;;;;;;9.46;7.07;;;;;;;;;;355955;149;857455;-64
2021/07/26 05:11:46;;;;;;;8.21;6.79;;;;;;;;;;359008;149;857330;-63
2021/07/26 05:12:48;;;;;;;18.23;7.55;;;;;;;;;;355099;148;859726;-62
2021/07/26 05:13:50;;;;;;;14.49;7.22;;;;;;;;;;358269;149;857267;-64
2021/07/26 05:14:52;;;;;;;13.27;7.31;;;;;;;;;;357592;147;858205;-63
2021/07/26 05:15:53;;;;;;;12.94;7.16;;;;;;;;;;356063;148;859291;-65
2021/07/26 05:16:56;;;;;;;14.25;7.04;;;;;;;;;;356134;149;858771;-61
2021/07/26 05:17:58;;;;;;;11.54;7.36;;;;;;;;;;357636;146;865842;-64
2021/07/26 05:18:59;;;;;;;11.89;7.82;;;;;;;;;;357493;147;865061;-63
2021/07/26 05:20:01;;;;;;;10.90;7.45;;;;;;;;;;354927;148;857324;-65
2021/07/26 05:21:02;;;;;;;10.05;7.59;;;;;;;;;;356252;149;857320;-64
2021/07/26 05:22:04;;;;;;;8.16;6.81;;;;;;;;;;356584;147;866685;-66
2021/07/26 05:23:09;;;;;;;11.41;7.96;;;;;;;;;;355099;148;858068;-67
2021/07/26 05:24:11;;;;;;;12.04;7.56;;;;;;;;;;359774;149;857364;-67
2021/07/26 05:25:12;;;;;;;14.14;8.42;;;;;;;;;;357227;147;865731;-65
2021/07/26 05:26:14;;;;;;;12.93;7.66;;;;;;;;;;354305;148;866677;-65
2021/07/26 05:27:16;;;;;;;11.61;8.11;;;;;;;;;;356206;148;857492;-65
2021/07/26 05:28:18;;;;;;;12.09;8.21;;;;;;;;;;359838;146;859125;-66
2021/07/26 05:29:19;;;;;;;16.07;7.76;;;;;;;;;;354988;148;866006;-66
2021/07/26 05:30:22;;;;;;;12.64;8.43;;;;;;;;;;355204;148;858831;-65
2021/07/26 05:31:23;;;;;;;14.15;9.29;;;;;;;;;;354163;150;857639;-65
2021/07/26 05:32:25;;;;;;;17.18;8.89;;;;;;;;;;354692;147;865732;-65
2021/07/26 05:33:27;;;;;;;13.72;9.69;;;;;;;;;;355547;148;859807;-64
2021/07/26 05:34:28;;;;;;;15.44;9.78;;;;;;;;;;359675;148;857828;-63
2021/07/26 05:35:31;;;;;;;16.07;9.84;;;;;;;;;;358941;149;857180;-66
2021/07/26 05:36:32;;;;;;;12.77;9.56;;;;;;;;;;359076;147;856304;-63
2021/07/26 05:37:34;;;;;;;15.09;9.15;;;;;;;;;;355058;148;864887;-64
2021/07/26 05:38:36;;;;;;;19.30;8.98;;;;;;;;;;359931;149;857338;-65
2021/07/26 05:39:37;;;;;;;12.14;8.82;;;;;;;;;;358850;148;865820;-64
2021/07/26 05:40:40;;;;;;;14.26;8.50;;;;;;;;;;355904;148;857496;-64
2021/07/26 05:41:42;;;;;;;12.34;8.86;;;;;;;;;;356071;150;866315;-64
2021/07/26 05:42:44;;;;;;;18.10;9.71;;;;;;;;;;356925;147;857337;-66
2021/07/26 05:43:45;;;;;;;16.04;9.19;;;;;;;;;;353540;146;858932;-63
2021/07/26 05:44:47;;;;;;;14.59;9.60;;;;;;;;;;356994;148;857559;-66
2021/07/26 05:45:49;;;;;;;14.44;8.86;;;;;;;;;;353984;152;858642;-65
2021/07/26 05:46:51;;;;;;;13.43;9.55;;;;;;;;;;355313;147;857717;-62
2021/07/26 05:47:53;;;;;;;13.40;9.41;;;;;;;;;;356706;146;857727;-64
2021/07/26 05:48:54;;;;;;;20.90;9.09;;;;;;;;;;358178;146;866723;-64
2021/07/26 05:49:56;;;;;;;17.45;9.52;;;;;;;;;;359600;147;857235;-65
2021/07/26 05:50:58;;;;;;;24.19;10.20;;;;;;;;;;354288;148;858198;-64
2021/07/26 05:52:00;;;;;;;15.16;9.20;;;;;;;;;;358740;148;859180;-64
2021/07/26 05:53:03;;;;;;;14.20;9.45;;;;;;;;;;360591;149;859048;-64
2021/07/26 05:54:05;;;;;;;17.24;9.01;;;;;;;;;;358508;147;858923;-64
2021/07/26 05:55:07;;;;;;;12.77;8.81;;;;;;;;;;358345;148;859409;-64
2021/07/26 05:56:11;;;;;;;14.78;8.99;;;;;;;;;;356328;151;857303;-63
2021/07/26 05:57:15;;;;;;;13.76;8.53;;;;;;;;;;355377;147;857810;-64
2021/07/26 05:58:16;;;;;;;13.09;8.88;;;;;;;;;;354112;148;857325;-63
2021/07/26 05:59:18;;;;;;;16.49;8.59;;;;;;;;;;355163;149;859846;-64
2021/07/26 06:00:26;;;;;;;15.40;9.18;;;;;;;;;;359078;145;857473;-63